sensor_id;sensor_type;location;lat;lon;timestamp;pressure;altitude;pressure_sealevel;temperature;humidity
59194;BME280;44967;48.598;15.650;2024-03-23T00:54:00;97647.06;;;9.44;74.00
59194;BME280;44967;48.598;15.650;2024-03-23T00:56:26;97643.63;;;9.42;74.38
59194;BME280;44967;48.598;15.650;2024-03-23T00:58:52;97644.50;;;9.43;74.15
59194;BME280;44967;48.598;15.650;2024-03-23T01:01:17;97638.31;;;9.44;74.13
59194;BME280;44967;48.598;15.650;2024-03-23T01:03:43;97638.13;;;9.48;73.82
59194;BME280;44967;48.598;15.650;2024-03-23T01:06:08;97637.09;;;9.53;74.17
59194;BME280;44967;48.598;15.650;2024-03-23T01:08:34;97635.13;;;9.59;74.11
59194;BME280;44967;48.598;15.650;2024-03-23T01:11:01;97627.47;;;9.52;73.95
59194;BME280;44967;48.598;15.650;2024-03-23T01:13:27;97638.25;;;9.45;74.24
59194;BME280;44967;48.598;15.650;2024-03-23T01:15:54;97630.44;;;9.42;74.54
59194;BME280;44967;48.598;15.650;2024-03-23T01:18:21;97621.84;;;9.37;74.82
59194;BME280;44967;48.598;15.650;2024-03-23T01:20:48;97620.94;;;9.38;75.23
59194;BME280;44967;48.598;15.650;2024-03-23T01:23:14;97620.22;;;9.33;74.88
59194;BME280;44967;48.598;15.650;2024-03-23T01:25:40;97620.19;;;9.35;74.97
59194;BME280;44967;48.598;15.650;2024-03-23T01:28:06;97625.91;;;9.23;75.95
59194;BME280;44967;48.598;15.650;2024-03-23T01:30:33;97609.09;;;9.25;75.95
59194;BME280;44967;48.598;15.650;2024-03-23T01:32:59;97609.91;;;9.27;75.73
59194;BME280;44967;48.598;15.650;2024-03-23T01:35:26;97608.91;;;9.31;75.69
59194;BME280;44967;48.598;15.650;2024-03-23T01:37:52;97599.13;;;9.33;75.27
59194;BME280;44967;48.598;15.650;2024-03-23T01:40:18;97600.03;;;9.32;75.00
59194;BME280;44967;48.598;15.650;2024-03-23T01:43:05;97592.66;;;9.42;75.20
59194;BME280;44967;48.598;15.650;2024-03-23T01:45:33;97597.94;;;9.42;74.73
59194;BME280;44967;48.598;15.650;2024-03-23T01:47:59;97590.19;;;9.37;75.30
59194;BME280;44967;48.598;15.650;2024-03-23T01:50:26;97591.09;;;9.36;75.50
59194;BME280;44967;48.598;15.650;2024-03-23T01:52:53;97589.25;;;9.40;75.50
59194;BME280;44967;48.598;15.650;2024-03-23T01:55:19;97574.22;;;9.42;75.64
59194;BME280;44967;48.598;15.650;2024-03-23T01:57:45;97577.00;;;9.37;76.31
59194;BME280;44967;48.598;15.650;2024-03-23T02:00:12;97578.75;;;9.38;76.01
59194;BME280;44967;48.598;15.650;2024-03-23T02:02:45;97573.91;;;9.26;76.16
59194;BME280;44967;48.598;15.650;2024-03-23T02:05:11;97572.19;;;9.25;76.09
59194;BME280;44967;48.598;15.650;2024-03-23T02:07:41;97573.75;;;9.31;75.80
59194;BME280;44967;48.598;15.650;2024-03-23T02:10:09;97568.34;;;9.34;75.47
59194;BME280;44967;48.598;15.650;2024-03-23T02:12:36;97563.13;;;9.32;75.09
59194;BME280;44967;48.598;15.650;2024-03-23T02:15:02;97559.72;;;9.30;75.40
59194;BME280;44967;48.598;15.650;2024-03-23T02:17:30;97562.91;;;9.38;75.44
59194;BME280;44967;48.598;15.650;2024-03-23T02:19:57;97552.38;;;9.38;75.52
59194;BME280;44967;48.598;15.650;2024-03-23T02:22:23;97551.81;;;9.30;74.46
59194;BME280;44967;48.598;15.650;2024-03-23T02:24:48;97548.19;;;9.33;74.44
59194;BME280;44967;48.598;15.650;2024-03-23T02:27:14;97552.38;;;9.38;74.06
59194;BME280;44967;48.598;15.650;2024-03-23T02:29:40;97539.34;;;9.34;75.81
59194;BME280;44967;48.598;15.650;2024-03-23T02:32:06;97535.94;;;9.32;75.84
59194;BME280;44967;48.598;15.650;2024-03-23T02:34:31;97525.56;;;9.27;76.35
59194;BME280;44967;48.598;15.650;2024-03-23T02:36:59;97528.38;;;9.23;77.04
59194;BME280;44967;48.598;15.650;2024-03-23T02:39:25;97520.78;;;9.14;77.01
59194;BME280;44967;48.598;15.650;2024-03-23T02:41:51;97512.25;;;9.07;77.03
59194;BME280;44967;48.598;15.650;2024-03-23T02:44:17;97516.94;;;9.22;76.30
59194;BME280;44967;48.598;15.650;2024-03-23T02:46:42;97512.72;;;9.18;77.30
59194;BME280;44967;48.598;15.650;2024-03-23T02:49:08;97501.19;;;9.21;77.64
59194;BME280;44967;48.598;15.650;2024-03-23T02:51:34;97498.50;;;9.22;76.94
59194;BME280;44967;48.598;15.650;2024-03-23T02:53:59;97501.09;;;9.24;76.51
59194;BME280;44967;48.598;15.650;2024-03-23T02:56:25;97497.81;;;9.17;77.10
59194;BME280;44967;48.598;15.650;2024-03-23T02:58:51;97490.88;;;9.15;77.77
59194;BME280;44967;48.598;15.650;2024-03-23T03:01:16;97478.28;;;9.23;77.67
59194;BME280;44967;48.598;15.650;2024-03-23T03:03:42;97486.22;;;9.21;77.88
59194;BME280;44967;48.598;15.650;2024-03-23T03:06:09;97483.72;;;9.18;78.42
59194;BME280;44967;48.598;15.650;2024-03-23T03:08:35;97484.88;;;9.11;79.07
59194;BME280;44967;48.598;15.650;2024-03-23T03:11:01;97486.41;;;9.17;78.93
59194;BME280;44967;48.598;15.650;2024-03-23T03:13:27;97486.19;;;9.23;78.46
59194;BME280;44967;48.598;15.650;2024-03-23T03:15:53;97490.34;;;9.28;78.37
59194;BME280;44967;48.598;15.650;2024-03-23T03:18:18;97473.75;;;9.26;78.23
59194;BME280;44967;48.598;15.650;2024-03-23T03:20:45;97484.03;;;9.32;78.24
59194;BME280;44967;48.598;15.650;2024-03-23T03:23:11;97476.94;;;9.34;77.55
59194;BME280;44967;48.598;15.650;2024-03-23T03:25:37;97483.13;;;9.33;77.44
59194;BME280;44967;48.598;15.650;2024-03-23T03:28:03;97476.50;;;9.00;76.47
59194;BME280;44967;48.598;15.650;2024-03-23T03:30:29;97471.91;;;9.05;76.28
59194;BME280;44967;48.598;15.650;2024-03-23T03:32:55;97472.09;;;9.01;75.41
59194;BME280;44967;48.598;15.650;2024-03-23T03:35:21;97465.44;;;8.90;75.89
59194;BME280;44967;48.598;15.650;2024-03-23T03:37:46;97466.31;;;8.91;76.18
59194;BME280;44967;48.598;15.650;2024-03-23T03:40:13;97462.69;;;8.93;77.60
59194;BME280;44967;48.598;15.650;2024-03-23T03:42:40;97462.47;;;8.99;77.50
59194;BME280;44967;48.598;15.650;2024-03-23T03:45:07;97467.66;;;9.01;77.40
59194;BME280;44967;48.598;15.650;2024-03-23T03:47:33;97462.41;;;9.01;76.73
59194;BME280;44967;48.598;15.650;2024-03-23T03:49:59;97461.44;;;9.04;76.47
59194;BME280;44967;48.598;15.650;2024-03-23T03:52:25;97461.44;;;9.04;76.55
59194;BME280;44967;48.598;15.650;2024-03-23T03:54:50;97462.31;;;9.04;75.92
59194;BME280;44967;48.598;15.650;2024-03-23T03:57:16;97457.09;;;9.03;75.55
59194;BME280;44967;48.598;15.650;2024-03-23T03:59:42;97462.53;;;8.98;76.13
59194;BME280;44967;48.598;15.650;2024-03-23T04:02:08;97446.50;;;9.04;76.10
59194;BME280;44967;48.598;15.650;2024-03-23T04:04:33;97450.03;;;9.03;75.61
59194;BME280;44967;48.598;15.650;2024-03-23T04:07:02;97446.50;;;9.04;76.08
59194;BME280;44967;48.598;15.650;2024-03-23T04:09:28;97445.50;;;9.07;76.67
59194;BME280;44967;48.598;15.650;2024-03-23T04:11:56;97451.78;;;9.04;77.69
59194;BME280;44967;48.598;15.650;2024-03-23T04:14:24;97453.59;;;9.02;77.61
59194;BME280;44967;48.598;15.650;2024-03-23T04:16:50;97439.72;;;8.97;77.98
59194;BME280;44967;48.598;15.650;2024-03-23T04:19:16;97433.53;;;8.98;77.40
59194;BME280;44967;48.598;15.650;2024-03-23T04:21:41;97423.81;;;9.00;77.16
59194;BME280;44967;48.598;15.650;2024-03-23T04:24:07;97427.47;;;8.96;77.10
59194;BME280;44967;48.598;15.650;2024-03-23T04:26:42;97432.59;;;9.01;77.82
59194;BME280;44967;48.598;15.650;2024-03-23T04:29:08;97416.69;;;9.02;77.64
59194;BME280;44967;48.598;15.650;2024-03-23T04:31:34;97421.06;;;9.03;77.09
59194;BME280;44967;48.598;15.650;2024-03-23T04:34:01;97413.31;;;8.98;76.73
59194;BME280;44967;48.598;15.650;2024-03-23T04:36:27;97424.28;;;8.88;77.44
59194;BME280;44967;48.598;15.650;2024-03-23T04:38:53;97424.38;;;8.85;77.83
59194;BME280;44967;48.598;15.650;2024-03-23T04:41:18;97416.75;;;8.77;77.98
59194;BME280;44967;48.598;15.650;2024-03-23T04:43:45;97417.22;;;8.65;77.17
59194;BME280;44967;48.598;15.650;2024-03-23T04:46:10;97411.13;;;8.40;77.19
59194;BME280;44967;48.598;15.650;2024-03-23T04:48:36;97413.78;;;8.40;78.00
59194;BME280;44967;48.598;15.650;2024-03-23T04:51:03;97401.47;;;8.40;77.76
59194;BME280;44967;48.598;15.650;2024-03-23T04:53:28;97402.13;;;8.45;78.21
59194;BME280;44967;48.598;15.650;2024-03-23T04:55:57;97398.72;;;8.43;78.82
59194;BME280;44967;48.598;15.650;2024-03-23T04:58:25;97392.59;;;8.43;78.66
59194;BME280;44967;48.598;15.650;2024-03-23T05:00:57;97390.06;;;8.40;78.96
59194;BME280;44967;48.598;15.650;2024-03-23T05:03:23;97383.03;;;8.40;78.88
59194;BME280;44967;48.598;15.650;2024-03-23T05:05:50;97383.91;;;8.41;79.28
59194;BME280;44967;48.598;15.650;2024-03-23T05:08:16;97379.38;;;8.44;78.81
59194;BME280;44967;48.598;15.650;2024-03-23T05:10:42;97379.72;;;8.35;78.68
59194;BME280;44967;48.598;15.650;2024-03-23T05:13:09;97377.19;;;8.32;79.13
59194;BME280;44967;48.598;15.650;2024-03-23T05:15:36;97379.59;;;8.38;79.29
59194;BME280;44967;48.598;15.650;2024-03-23T05:18:01;97367.25;;;8.40;79.08
59194;BME280;44967;48.598;15.650;2024-03-23T05:20:27;97382.34;;;8.35;80.45
59194;BME280;44967;48.598;15.650;2024-03-23T05:22:54;97387.59;;;8.35;80.41
59194;BME280;44967;48.598;15.650;2024-03-23T05:25:20;97391.25;;;8.31;80.11
59194;BME280;44967;48.598;15.650;2024-03-23T05:27:46;97382.47;;;8.32;80.55
59194;BME280;44967;48.598;15.650;2024-03-23T05:30:12;97381.88;;;8.23;80.98
59194;BME280;44967;48.598;15.650;2024-03-23T05:32:38;97375.47;;;8.31;80.63
59194;BME280;44967;48.598;15.650;2024-03-23T05:35:06;97368.16;;;8.39;80.33
59194;BME280;44967;48.598;15.650;2024-03-23T05:37:33;97364.50;;;8.43;80.32
59194;BME280;44967;48.598;15.650;2024-03-23T05:40:03;97374.69;;;8.52;80.42
59194;BME280;44967;48.598;15.650;2024-03-23T05:42:29;97365.75;;;8.57;80.41
59194;BME280;44967;48.598;15.650;2024-03-23T05:44:55;97366.22;;;8.68;79.85
59194;BME280;44967;48.598;15.650;2024-03-23T05:47:21;97367.25;;;8.64;79.78
59194;BME280;44967;48.598;15.650;2024-03-23T05:49:47;97351.56;;;8.61;80.07
59194;BME280;44967;48.598;15.650;2024-03-23T05:52:13;97363.59;;;8.68;80.42
59194;BME280;44967;48.598;15.650;2024-03-23T05:54:38;97355.69;;;8.68;80.54
59194;BME280;44967;48.598;15.650;2024-03-23T05:57:04;97353.78;;;8.71;80.66
59194;BME280;44967;48.598;15.650;2024-03-23T05:59:33;97353.78;;;8.71;80.42
59194;BME280;44967;48.598;15.650;2024-03-23T06:01:59;97346.56;;;8.76;80.11
59194;BME280;44967;48.598;15.650;2024-03-23T06:04:25;97359.66;;;8.78;79.48
59194;BME280;44967;48.598;15.650;2024-03-23T06:06:51;97348.34;;;8.76;80.67
59194;BME280;44967;48.598;15.650;2024-03-23T06:09:18;97351.84;;;8.76;80.65
59194;BME280;44967;48.598;15.650;2024-03-23T06:11:45;97344.97;;;8.72;80.20
59194;BME280;44967;48.598;15.650;2024-03-23T06:14:11;97349.38;;;8.72;80.13
59194;BME280;44967;48.598;15.650;2024-03-23T06:16:37;97346.78;;;8.70;79.72
59194;BME280;44967;48.598;15.650;2024-03-23T06:19:03;97344.00;;;8.75;80.11
59194;BME280;44967;48.598;15.650;2024-03-23T06:21:32;97342.44;;;8.69;80.11
59194;BME280;44967;48.598;15.650;2024-03-23T06:23:58;97340.91;;;8.64;80.29
59194;BME280;44967;48.598;15.650;2024-03-23T06:26:24;97345.38;;;8.62;80.92
59194;BME280;44967;48.598;15.650;2024-03-23T06:28:50;97339.31;;;8.60;80.81
59194;BME280;44967;48.598;15.650;2024-03-23T06:31:15;97343.47;;;8.65;81.10
59194;BME280;44967;48.598;15.650;2024-03-23T06:33:41;97342.63;;;8.65;81.23
59194;BME280;44967;48.598;15.650;2024-03-23T06:36:10;97345.16;;;8.68;81.45
59194;BME280;44967;48.598;15.650;2024-03-23T06:38:37;97332.28;;;8.82;81.65
59194;BME280;44967;48.598;15.650;2024-03-23T06:41:06;97339.09;;;8.87;81.80
59194;BME280;44967;48.598;15.650;2024-03-23T06:43:31;97339.66;;;8.95;81.24
59194;BME280;44967;48.598;15.650;2024-03-23T06:45:57;97340.22;;;9.04;80.26
59194;BME280;44967;48.598;15.650;2024-03-23T06:48:23;97339.84;;;9.13;79.74
59194;BME280;44967;48.598;15.650;2024-03-23T06:50:49;97336.78;;;9.23;79.67
59194;BME280;44967;48.598;15.650;2024-03-23T06:53:15;97339.84;;;9.34;79.18
59194;BME280;44967;48.598;15.650;2024-03-23T06:55:41;97341.25;;;9.43;78.66
59194;BME280;44967;48.598;15.650;2024-03-23T06:58:08;97333.88;;;9.51;78.32
59194;BME280;44967;48.598;15.650;2024-03-23T07:00:33;97330.75;;;9.63;78.01
59194;BME280;44967;48.598;15.650;2024-03-23T07:03:00;97326.06;;;9.70;77.54
59194;BME280;44967;48.598;15.650;2024-03-23T07:05:26;97322.34;;;9.74;77.37
59194;BME280;44967;48.598;15.650;2024-03-23T07:07:52;97314.13;;;9.81;77.22
59194;BME280;44967;48.598;15.650;2024-03-23T07:10:17;97313.97;;;9.84;76.03
59194;BME280;44967;48.598;15.650;2024-03-23T07:12:43;97307.59;;;9.90;76.00
59194;BME280;44967;48.598;15.650;2024-03-23T07:15:09;97305.53;;;9.97;75.90
59194;BME280;44967;48.598;15.650;2024-03-23T07:17:35;97306.75;;;10.08;76.07
59194;BME280;44967;48.598;15.650;2024-03-23T07:20:02;97297.41;;;10.21;76.86
59194;BME280;44967;48.598;15.650;2024-03-23T07:22:32;97294.22;;;10.33;75.98
59194;BME280;44967;48.598;15.650;2024-03-23T07:25:01;97283.00;;;10.47;75.50
59194;BME280;44967;48.598;15.650;2024-03-23T07:27:28;97262.88;;;10.63;75.93
59194;BME280;44967;48.598;15.650;2024-03-23T07:29:54;97265.81;;;10.76;75.27
59194;BME280;44967;48.598;15.650;2024-03-23T07:32:20;97260.84;;;10.87;74.84
59194;BME280;44967;48.598;15.650;2024-03-23T07:34:46;97249.69;;;10.99;75.01
59194;BME280;44967;48.598;15.650;2024-03-23T07:37:12;97252.31;;;11.18;74.21
59194;BME280;44967;48.598;15.650;2024-03-23T07:39:39;97254.25;;;11.31;74.33
59194;BME280;44967;48.598;15.650;2024-03-23T07:42:05;97248.97;;;11.49;74.15
59194;BME280;44967;48.598;15.650;2024-03-23T07:44:31;97244.16;;;11.74;73.31
59194;BME280;44967;48.598;15.650;2024-03-23T07:47:00;97233.56;;;11.91;73.10
59194;BME280;44967;48.598;15.650;2024-03-23T07:49:26;97230.53;;;12.14;71.43
59194;BME280;44967;48.598;15.650;2024-03-23T07:51:52;97221.50;;;12.34;71.32
59194;BME280;44967;48.598;15.650;2024-03-23T07:54:18;97217.69;;;12.55;71.28
59194;BME280;44967;48.598;15.650;2024-03-23T07:56:43;97221.44;;;12.83;70.18
59194;BME280;44967;48.598;15.650;2024-03-23T07:59:10;97219.19;;;13.06;68.83
59194;BME280;44967;48.598;15.650;2024-03-23T08:01:36;97215.69;;;13.21;67.81
59194;BME280;44967;48.598;15.650;2024-03-23T08:04:02;97204.56;;;13.45;67.83
59194;BME280;44967;48.598;15.650;2024-03-23T08:06:28;97195.53;;;13.77;66.57
59194;BME280;44967;48.598;15.650;2024-03-23T08:08:57;97194.56;;;14.06;65.10
59194;BME280;44967;48.598;15.650;2024-03-23T08:11:29;97198.00;;;14.23;64.15
59194;BME280;44967;48.598;15.650;2024-03-23T08:13:56;97190.00;;;14.65;58.27
59194;BME280;44967;48.598;15.650;2024-03-23T08:16:23;97185.41;;;14.81;60.79
59194;BME280;44967;48.598;15.650;2024-03-23T08:18:51;97182.13;;;14.90;59.94
59194;BME280;44967;48.598;15.650;2024-03-23T08:21:17;97175.09;;;15.16;57.44
59194;BME280;44967;48.598;15.650;2024-03-23T08:23:43;97163.72;;;15.27;55.95
59194;BME280;44967;48.598;15.650;2024-03-23T08:26:16;97160.09;;;15.54;52.26
59194;BME280;44967;48.598;15.650;2024-03-23T08:28:43;97152.84;;;15.82;49.91
59194;BME280;44967;48.598;15.650;2024-03-23T08:31:11;97131.63;;;16.06;46.68
59194;BME280;44967;48.598;15.650;2024-03-23T08:33:37;97133.34;;;16.07;47.95
59194;BME280;44967;48.598;15.650;2024-03-23T08:36:06;97131.63;;;16.18;46.73
59194;BME280;44967;48.598;15.650;2024-03-23T08:38:32;97121.88;;;16.30;46.77
59194;BME280;44967;48.598;15.650;2024-03-23T08:40:59;97125.47;;;16.41;45.41
59194;BME280;44967;48.598;15.650;2024-03-23T08:43:26;97125.19;;;16.33;45.63
59194;BME280;44967;48.598;15.650;2024-03-23T08:45:53;97131.47;;;16.20;46.12
59194;BME280;44967;48.598;15.650;2024-03-23T08:48:21;97134.75;;;16.36;46.05
59194;BME280;44967;48.598;15.650;2024-03-23T08:50:47;97128.03;;;16.43;47.76
59194;BME280;44967;48.598;15.650;2024-03-23T08:53:22;97120.09;;;16.54;47.43
59194;BME280;44967;48.598;15.650;2024-03-23T08:55:55;97101.53;;;16.65;46.34
59194;BME280;44967;48.598;15.650;2024-03-23T08:58:23;97095.16;;;16.55;50.10
59194;BME280;44967;48.598;15.650;2024-03-23T09:00:54;97092.28;;;16.45;49.52
59194;BME280;44967;48.598;15.650;2024-03-23T09:03:26;97094.47;;;16.64;49.57
59194;BME280;44967;48.598;15.650;2024-03-23T09:05:52;97087.00;;;16.69;48.11
59194;BME280;44967;48.598;15.650;2024-03-23T09:08:21;97080.41;;;16.62;50.79
59194;BME280;44967;48.598;15.650;2024-03-23T09:10:47;97076.81;;;16.50;50.57
59194;BME280;44967;48.598;15.650;2024-03-23T09:13:14;97068.69;;;16.52;50.44
59194;BME280;44967;48.598;15.650;2024-03-23T09:15:48;97076.03;;;16.61;50.07
59194;BME280;44967;48.598;15.650;2024-03-23T09:18:14;97060.03;;;16.61;49.16
59194;BME280;44967;48.598;15.650;2024-03-23T09:20:40;97054.75;;;16.72;49.31
59194;BME280;44967;48.598;15.650;2024-03-23T09:23:06;97039.16;;;16.79;49.00
59194;BME280;44967;48.598;15.650;2024-03-23T09:25:32;97045.56;;;16.76;48.94
59194;BME280;44967;48.598;15.650;2024-03-23T09:27:58;97027.63;;;16.78;49.41
59194;BME280;44967;48.598;15.650;2024-03-23T09:30:24;97024.47;;;16.84;48.31
59194;BME280;44967;48.598;15.650;2024-03-23T09:32:49;97017.88;;;17.01;47.44
59194;BME280;44967;48.598;15.650;2024-03-23T09:35:15;97006.69;;;17.07;47.70
59194;BME280;44967;48.598;15.650;2024-03-23T09:37:41;97005.16;;;17.16;47.87
59194;BME280;44967;48.598;15.650;2024-03-23T09:40:10;96998.34;;;17.12;47.91
59194;BME280;44967;48.598;15.650;2024-03-23T09:42:40;96990.84;;;17.28;47.38
59194;BME280;44967;48.598;15.650;2024-03-23T09:45:06;96986.59;;;17.25;47.33
59194;BME280;44967;48.598;15.650;2024-03-23T09:47:37;96981.88;;;17.29;46.94
59194;BME280;44967;48.598;15.650;2024-03-23T09:50:03;96966.00;;;17.72;46.78
59194;BME280;44967;48.598;15.650;2024-03-23T09:52:30;96975.91;;;18.46;42.78
59194;BME280;44967;48.598;15.650;2024-03-23T09:54:57;96962.59;;;19.90;41.01
59194;BME280;44967;48.598;15.650;2024-03-23T09:57:22;96959.00;;;21.35;36.11
59194;BME280;44967;48.598;15.650;2024-03-23T09:59:48;96956.63;;;22.86;33.89
59194;BME280;44967;48.598;15.650;2024-03-23T10:02:15;96960.31;;;23.28;30.67
59194;BME280;44967;48.598;15.650;2024-03-23T10:04:42;96958.47;;;23.55;30.55
59194;BME280;44967;48.598;15.650;2024-03-23T10:07:18;96952.59;;;23.33;30.30
59194;BME280;44967;48.598;15.650;2024-03-23T10:09:44;96942.84;;;23.92;31.22
59194;BME280;44967;48.598;15.650;2024-03-23T10:12:11;96938.22;;;24.18;29.96
59194;BME280;44967;48.598;15.650;2024-03-23T10:14:40;96944.72;;;24.58;31.06
59194;BME280;44967;48.598;15.650;2024-03-23T10:17:19;96942.53;;;24.37;29.96
59194;BME280;44967;48.598;15.650;2024-03-23T10:19:51;96942.88;;;24.50;28.88
59194;BME280;44967;48.598;15.650;2024-03-23T10:22:21;96934.31;;;24.13;29.98
59194;BME280;44967;48.598;15.650;2024-03-23T10:24:48;96933.59;;;23.61;29.91
59194;BME280;44967;48.598;15.650;2024-03-23T10:27:19;96943.22;;;24.05;29.13
59194;BME280;44967;48.598;15.650;2024-03-23T10:29:46;96946.00;;;23.87;29.34
59194;BME280;44967;48.598;15.650;2024-03-23T10:32:21;96943.56;;;23.68;30.15
59194;BME280;44967;48.598;15.650;2024-03-23T10:34:47;96947.69;;;24.22;28.59
59194;BME280;44967;48.598;15.650;2024-03-23T10:37:13;96929.50;;;23.05;29.89
59194;BME280;44967;48.598;15.650;2024-03-23T10:39:40;96930.72;;;23.36;30.10
59194;BME280;44967;48.598;15.650;2024-03-23T10:42:09;96938.69;;;23.72;29.89
59194;BME280;44967;48.598;15.650;2024-03-23T10:44:39;96939.94;;;23.52;30.59
59194;BME280;44967;48.598;15.650;2024-03-23T10:47:05;96956.09;;;22.82;31.03
59194;BME280;44967;48.598;15.650;2024-03-23T10:49:35;96945.78;;;22.78;31.30
59194;BME280;44967;48.598;15.650;2024-03-23T10:52:05;96940.91;;;22.81;30.15
59194;BME280;44967;48.598;15.650;2024-03-23T10:54:32;96940.41;;;23.03;31.69
59194;BME280;44967;48.598;15.650;2024-03-23T10:57:03;96934.41;;;23.35;30.03
59194;BME280;44967;48.598;15.650;2024-03-23T10:59:31;96921.13;;;24.02;29.89
59194;BME280;44967;48.598;15.650;2024-03-23T11:01:59;96934.88;;;23.48;31.13
59194;BME280;44967;48.598;15.650;2024-03-23T11:04:38;96928.59;;;23.74;32.68
59194;BME280;44967;48.598;15.650;2024-03-23T11:09:55;96930.84;;;23.53;29.98
59194;BME280;44967;48.598;15.650;2024-03-23T11:14:47;96940.81;;;22.20;31.75
59194;BME280;44967;48.598;15.650;2024-03-23T11:17:23;96949.78;;;21.37;33.51
59194;BME280;44967;48.598;15.650;2024-03-23T11:25:03;96959.50;;;20.73;34.61
59194;BME280;44967;48.598;15.650;2024-03-23T11:27:29;96961.47;;;20.90;35.73
59194;BME280;44967;48.598;15.650;2024-03-23T11:30:11;96963.84;;;20.83;34.99
59194;BME280;44967;48.598;15.650;2024-03-23T11:32:37;96959.88;;;20.39;35.18
59194;BME280;44967;48.598;15.650;2024-03-23T11:35:03;96969.50;;;20.51;36.81
59194;BME280;44967;48.598;15.650;2024-03-23T11:37:29;96970.53;;;20.01;36.08
59194;BME280;44967;48.598;15.650;2024-03-23T11:39:55;97004.91;;;19.56;37.57
59194;BME280;44967;48.598;15.650;2024-03-23T11:42:21;97025.63;;;19.33;38.32
59194;BME280;44967;48.598;15.650;2024-03-23T11:44:47;97026.94;;;19.18;39.95
59194;BME280;44967;48.598;15.650;2024-03-23T11:47:12;97044.50;;;18.90;41.03
59194;BME280;44967;48.598;15.650;2024-03-23T11:49:38;97028.69;;;18.55;43.47
59194;BME280;44967;48.598;15.650;2024-03-23T11:52:07;97052.09;;;17.98;45.10
59194;BME280;44967;48.598;15.650;2024-03-23T11:54:35;97052.81;;;17.66;45.83
59194;BME280;44967;48.598;15.650;2024-03-23T11:57:08;97073.53;;;17.40;46.01
59194;BME280;44967;48.598;15.650;2024-03-23T11:59:38;97054.22;;;17.26;46.76
59194;BME280;44967;48.598;15.650;2024-03-23T12:02:10;97063.19;;;17.25;47.48
59194;BME280;44967;48.598;15.650;2024-03-23T12:04:40;97052.69;;;17.11;47.71
59194;BME280;44967;48.598;15.650;2024-03-23T12:07:14;97041.81;;;17.14;49.20
59194;BME280;44967;48.598;15.650;2024-03-23T12:09:41;97045.75;;;16.97;48.64
59194;BME280;44967;48.598;15.650;2024-03-23T12:14:33;97046.09;;;16.92;49.12
59194;BME280;44967;48.598;15.650;2024-03-23T12:17:12;97076.66;;;17.34;47.12
59194;BME280;44967;48.598;15.650;2024-03-23T12:19:38;97065.19;;;17.45;45.74
59194;BME280;44967;48.598;15.650;2024-03-23T12:22:05;97074.19;;;17.09;44.60
59194;BME280;44967;48.598;15.650;2024-03-23T12:24:33;97079.78;;;16.82;43.88
59194;BME280;44967;48.598;15.650;2024-03-23T12:27:03;97066.19;;;16.38;42.99
59194;BME280;44967;48.598;15.650;2024-03-23T12:29:32;97052.50;;;16.19;43.16
59194;BME280;44967;48.598;15.650;2024-03-23T12:32:02;97053.38;;;16.07;43.15
59194;BME280;44967;48.598;15.650;2024-03-23T12:34:29;97052.50;;;15.57;43.45
59194;BME280;44967;48.598;15.650;2024-03-23T12:36:56;97052.94;;;15.51;42.61
59194;BME280;44967;48.598;15.650;2024-03-23T12:39:21;97047.91;;;15.08;42.42
59194;BME280;44967;48.598;15.650;2024-03-23T12:41:51;97052.94;;;14.86;42.92
59194;BME280;44967;48.598;15.650;2024-03-23T12:44:18;97067.06;;;14.61;42.99
59194;BME280;44967;48.598;15.650;2024-03-23T12:46:44;97046.94;;;14.57;42.97
59194;BME280;44967;48.598;15.650;2024-03-23T12:49:10;97037.41;;;14.41;43.52
59194;BME280;44967;48.598;15.650;2024-03-23T12:51:36;97048.38;;;14.22;43.56
59194;BME280;44967;48.598;15.650;2024-03-23T12:54:02;97049.16;;;14.10;44.64
59194;BME280;44967;48.598;15.650;2024-03-23T12:56:28;97060.66;;;13.96;45.92
59194;BME280;44967;48.598;15.650;2024-03-23T12:58:54;97059.91;;;13.80;47.14
59194;BME280;44967;48.598;15.650;2024-03-23T13:01:25;97057.06;;;13.83;48.39
59194;BME280;44967;48.598;15.650;2024-03-23T13:03:51;97065.25;;;13.66;48.50
59194;BME280;44967;48.598;15.650;2024-03-23T13:06:18;97073.09;;;13.53;50.07
59194;BME280;44967;48.598;15.650;2024-03-23T13:08:47;97088.94;;;13.41;49.33
59194;BME280;44967;48.598;15.650;2024-03-23T13:11:15;97098.97;;;13.36;51.55
59194;BME280;44967;48.598;15.650;2024-03-23T13:13:41;97103.59;;;13.18;51.91
59194;BME280;44967;48.598;15.650;2024-03-23T13:16:07;97115.81;;;13.05;53.01
59194;BME280;44967;48.598;15.650;2024-03-23T13:18:33;97127.38;;;13.04;53.22
59194;BME280;44967;48.598;15.650;2024-03-23T13:20:59;97131.25;;;12.98;55.56
59194;BME280;44967;48.598;15.650;2024-03-23T13:23:25;97135.97;;;12.93;54.84
59194;BME280;44967;48.598;15.650;2024-03-23T13:25:52;97148.50;;;12.75;55.39
59194;BME280;44967;48.598;15.650;2024-03-23T13:28:22;97150.16;;;12.47;57.36
59194;BME280;44967;48.598;15.650;2024-03-23T13:30:55;97164.59;;;12.25;58.18
59194;BME280;44967;48.598;15.650;2024-03-23T13:33:21;97167.09;;;12.28;59.87
59194;BME280;44967;48.598;15.650;2024-03-23T13:35:51;97170.66;;;12.27;59.27
59194;BME280;44967;48.598;15.650;2024-03-23T13:38:16;97172.53;;;12.25;60.27
59194;BME280;44967;48.598;15.650;2024-03-23T13:40:59;97167.09;;;12.28;60.83
59194;BME280;44967;48.598;15.650;2024-03-23T13:43:27;97181.06;;;12.15;61.32
59194;BME280;44967;48.598;15.650;2024-03-23T13:45:55;97182.09;;;12.12;61.61
59194;BME280;44967;48.598;15.650;2024-03-23T13:48:23;97181.50;;;12.23;61.38
59194;BME280;44967;48.598;15.650;2024-03-23T13:51:04;97185.50;;;12.14;59.86
59194;BME280;44967;48.598;15.650;2024-03-23T13:53:30;97193.47;;;12.14;59.74
59194;BME280;44967;48.598;15.650;2024-03-23T13:55:57;97206.59;;;12.00;62.58
59194;BME280;44967;48.598;15.650;2024-03-23T13:58:23;97211.09;;;11.98;63.72
59194;BME280;44967;48.598;15.650;2024-03-23T14:00:51;97208.44;;;11.98;64.00